sensor_id;sensor_type;location;lat;lon;timestamp;P1;durP1;ratioP1;P2;durP2;ratioP2
72404;SDS011;60395;52.020;113.548;2024-01-11T00:00:02;13.13;;;4.88;;
72404;SDS011;60395;52.020;113.548;2024-01-11T00:03:06;5.60;;;2.85;;
72404;SDS011;60395;52.020;113.548;2024-01-11T00:06:09;10.90;;;4.68;;
72404;SDS011;60395;52.020;113.548;2024-01-11T00:09:13;5.88;;;3.00;;
72404;SDS011;60395;52.020;113.548;2024-01-11T00:12:16;6.25;;;4.13;;
72404;SDS011;60395;52.020;113.548;2024-01-11T00:15:19;16.98;;;4.43;;
72404;SDS011;60395;52.020;113.548;2024-01-11T00:18:23;7.25;;;3.25;;
72404;SDS011;60395;52.020;113.548;2024-01-11T00:21:26;1.35;;;1.10;;
72404;SDS011;60395;52.020;113.548;2024-01-11T00:24:30;8.25;;;3.30;;
72404;SDS011;60395;52.020;113.548;2024-01-11T00:27:41;5.63;;;3.25;;
72404;SDS011;60395;52.020;113.548;2024-01-11T00:30:44;10.88;;;5.82;;
72404;SDS011;60395;52.020;113.548;2024-01-11T00:33:48;8.07;;;2.95;;
72404;SDS011;60395;52.020;113.548;2024-01-11T00:36:51;4.38;;;2.88;;
72404;SDS011;60395;52.020;113.548;2024-01-11T00:39:55;4.82;;;2.90;;
72404;SDS011;60395;52.020;113.548;2024-01-11T00:42:58;5.60;;;2.92;;
72404;SDS011;60395;52.020;113.548;2024-01-11T00:46:01;7.50;;;4.97;;
72404;SDS011;60395;52.020;113.548;2024-01-11T00:49:05;8.23;;;3.65;;
72404;SDS011;60395;52.020;113.548;2024-01-11T00:52:09;3.45;;;2.28;;
72404;SDS011;60395;52.020;113.548;2024-01-11T00:55:16;2.38;;;1.58;;
72404;SDS011;60395;52.020;113.548;2024-01-11T00:58:19;10.88;;;4.07;;
72404;SDS011;60395;52.020;113.548;2024-01-11T01:01:23;5.68;;;3.38;;
72404;SDS011;60395;52.020;113.548;2024-01-11T01:04:26;8.45;;;2.80;;
72404;SDS011;60395;52.020;113.548;2024-01-11T01:07:30;8.98;;;4.22;;
72404;SDS011;60395;52.020;113.548;2024-01-11T01:10:33;3.03;;;1.50;;
72404;SDS011;60395;52.020;113.548;2024-01-11T01:13:36;3.85;;;1.63;;
72404;SDS011;60395;52.020;113.548;2024-01-11T01:16:40;4.90;;;1.42;;
72404;SDS011;60395;52.020;113.548;2024-01-11T01:19:43;6.75;;;2.25;;
72404;SDS011;60395;52.020;113.548;2024-01-11T01:22:47;7.40;;;3.03;;
72404;SDS011;60395;52.020;113.548;2024-01-11T01:25:50;7.53;;;3.15;;
72404;SDS011;60395;52.020;113.548;2024-01-11T01:28:54;8.63;;;3.95;;
72404;SDS011;60395;52.020;113.548;2024-01-11T01:31:57;11.57;;;4.95;;
72404;SDS011;60395;52.020;113.548;2024-01-11T01:35:01;6.63;;;3.17;;
72404;SDS011;60395;52.020;113.548;2024-01-11T01:38:04;5.03;;;2.83;;
72404;SDS011;60395;52.020;113.548;2024-01-11T01:41:08;7.35;;;2.17;;
72404;SDS011;60395;52.020;113.548;2024-01-11T01:44:11;4.63;;;2.88;;
72404;SDS011;60395;52.020;113.548;2024-01-11T01:47:15;7.03;;;3.53;;
72404;SDS011;60395;52.020;113.548;2024-01-11T01:50:19;2.72;;;1.48;;
72404;SDS011;60395;52.020;113.548;2024-01-11T01:53:24;9.90;;;3.83;;
72404;SDS011;60395;52.020;113.548;2024-01-11T01:56:31;6.20;;;2.85;;
72404;SDS011;60395;52.020;113.548;2024-01-11T01:59:34;7.40;;;2.38;;
72404;SDS011;60395;52.020;113.548;2024-01-11T02:02:41;7.78;;;3.47;;
72404;SDS011;60395;52.020;113.548;2024-01-11T02:05:47;9.15;;;4.07;;
72404;SDS011;60395;52.020;113.548;2024-01-11T02:08:52;9.20;;;3.42;;
72404;SDS011;60395;52.020;113.548;2024-01-11T02:11:58;4.28;;;2.30;;
72404;SDS011;60395;52.020;113.548;2024-01-11T02:15:03;11.02;;;2.45;;
72404;SDS011;60395;52.020;113.548;2024-01-11T02:18:07;4.63;;;2.40;;
72404;SDS011;60395;52.020;113.548;2024-01-11T02:21:11;8.80;;;3.22;;
72404;SDS011;60395;52.020;113.548;2024-01-11T02:24:18;6.93;;;2.97;;
72404;SDS011;60395;52.020;113.548;2024-01-11T02:30:25;18.13;;;2.53;;
72404;SDS011;60395;52.020;113.548;2024-01-11T02:33:29;8.18;;;3.40;;
72404;SDS011;60395;52.020;113.548;2024-01-11T02:36:33;5.13;;;2.80;;
72404;SDS011;60395;52.020;113.548;2024-01-11T02:39:36;10.45;;;2.20;;
72404;SDS011;60395;52.020;113.548;2024-01-11T02:42:40;6.75;;;1.63;;
72404;SDS011;60395;52.020;113.548;2024-01-11T02:45:44;4.80;;;1.60;;
72404;SDS011;60395;52.020;113.548;2024-01-11T02:48:47;8.77;;;3.88;;
72404;SDS011;60395;52.020;113.548;2024-01-11T02:51:51;2.22;;;1.65;;
72404;SDS011;60395;52.020;113.548;2024-01-11T02:54:54;1.77;;;0.97;;
72404;SDS011;60395;52.020;113.548;2024-01-11T02:57:58;3.70;;;2.15;;
72404;SDS011;60395;52.020;113.548;2024-01-11T03:01:01;3.70;;;1.85;;
72404;SDS011;60395;52.020;113.548;2024-01-11T03:04:05;15.40;;;2.03;;
72404;SDS011;60395;52.020;113.548;2024-01-11T03:07:08;4.20;;;2.08;;
72404;SDS011;60395;52.020;113.548;2024-01-11T03:10:12;3.55;;;1.92;;
72404;SDS011;60395;52.020;113.548;2024-01-11T03:13:16;1.90;;;1.00;;
72404;SDS011;60395;52.020;113.548;2024-01-11T03:16:19;16.57;;;1.60;;
72404;SDS011;60395;52.020;113.548;2024-01-11T03:19:22;2.97;;;2.08;;
72404;SDS011;60395;52.020;113.548;2024-01-11T03:22:26;2.92;;;1.73;;
72404;SDS011;60395;52.020;113.548;2024-01-11T03:25:30;7.20;;;3.08;;
72404;SDS011;60395;52.020;113.548;2024-01-11T03:28:33;4.20;;;0.83;;
72404;SDS011;60395;52.020;113.548;2024-01-11T03:31:36;7.43;;;1.33;;
72404;SDS011;60395;52.020;113.548;2024-01-11T03:34:43;2.05;;;1.30;;
72404;SDS011;60395;52.020;113.548;2024-01-11T03:37:47;1.35;;;0.57;;
72404;SDS011;60395;52.020;113.548;2024-01-11T03:40:50;3.33;;;1.37;;
72404;SDS011;60395;52.020;113.548;2024-01-11T03:43:54;0.28;;;0.20;;
72404;SDS011;60395;52.020;113.548;2024-01-11T03:46:58;0.60;;;0.50;;
72404;SDS011;60395;52.020;113.548;2024-01-11T03:50:05;1.93;;;1.73;;
72404;SDS011;60395;52.020;113.548;2024-01-11T03:53:10;3.85;;;1.48;;
72404;SDS011;60395;52.020;113.548;2024-01-11T03:56:14;4.80;;;1.65;;
72404;SDS011;60395;52.020;113.548;2024-01-11T03:59:18;1.92;;;1.27;;
72404;SDS011;60395;52.020;113.548;2024-01-11T04:02:22;0.80;;;0.75;;
72404;SDS011;60395;52.020;113.548;2024-01-11T04:05:26;1.27;;;0.32;;
72404;SDS011;60395;52.020;113.548;2024-01-11T04:08:30;2.78;;;1.00;;
72404;SDS011;60395;52.020;113.548;2024-01-11T04:11:34;0.98;;;0.50;;
72404;SDS011;60395;52.020;113.548;2024-01-11T04:14:38;2.65;;;1.30;;
72404;SDS011;60395;52.020;113.548;2024-01-11T04:17:45;1.75;;;1.08;;
72404;SDS011;60395;52.020;113.548;2024-01-11T04:20:50;1.52;;;0.98;;
72404;SDS011;60395;52.020;113.548;2024-01-11T04:23:53;0.80;;;0.53;;
72404;SDS011;60395;52.020;113.548;2024-01-11T04:26:58;2.50;;;0.82;;
72404;SDS011;60395;52.020;113.548;2024-01-11T04:30:01;2.27;;;1.30;;
72404;SDS011;60395;52.020;113.548;2024-01-11T04:33:05;2.72;;;0.90;;
72404;SDS011;60395;52.020;113.548;2024-01-11T04:36:09;2.55;;;1.00;;
72404;SDS011;60395;52.020;113.548;2024-01-11T04:39:13;4.18;;;1.42;;
72404;SDS011;60395;52.020;113.548;2024-01-11T04:42:17;1.07;;;0.83;;
72404;SDS011;60395;52.020;113.548;2024-01-11T04:45:20;1.42;;;0.88;;
72404;SDS011;60395;52.020;113.548;2024-01-11T04:48:24;4.00;;;1.75;;
72404;SDS011;60395;52.020;113.548;2024-01-11T04:51:27;7.83;;;1.70;;
72404;SDS011;60395;52.020;113.548;2024-01-11T04:54:31;9.43;;;2.95;;
72404;SDS011;60395;52.020;113.548;2024-01-11T04:57:34;8.82;;;2.05;;
72404;SDS011;60395;52.020;113.548;2024-01-11T05:00:38;2.47;;;1.63;;
72404;SDS011;60395;52.020;113.548;2024-01-11T05:03:41;3.00;;;1.50;;
72404;SDS011;60395;52.020;113.548;2024-01-11T05:06:48;3.85;;;1.63;;
72404;SDS011;60395;52.020;113.548;2024-01-11T05:09:53;1.40;;;1.02;;
72404;SDS011;60395;52.020;113.548;2024-01-11T05:12:57;4.28;;;1.67;;
72404;SDS011;60395;52.020;113.548;2024-01-11T05:16:00;1.85;;;1.00;;
72404;SDS011;60395;52.020;113.548;2024-01-11T05:19:04;2.27;;;1.13;;
72404;SDS011;60395;52.020;113.548;2024-01-11T05:22:08;4.03;;;1.42;;
72404;SDS011;60395;52.020;113.548;2024-01-11T05:25:12;3.38;;;1.33;;
72404;SDS011;60395;52.020;113.548;2024-01-11T05:28:15;4.37;;;1.50;;
72404;SDS011;60395;52.020;113.548;2024-01-11T05:31:18;6.63;;;2.78;;
72404;SDS011;60395;52.020;113.548;2024-01-11T05:34:22;3.65;;;1.60;;
72404;SDS011;60395;52.020;113.548;2024-01-11T05:37:26;2.72;;;0.90;;
72404;SDS011;60395;52.020;113.548;2024-01-11T05:40:30;4.47;;;2.20;;
72404;SDS011;60395;52.020;113.548;2024-01-11T05:43:33;8.95;;;4.18;;
72404;SDS011;60395;52.020;113.548;2024-01-11T05:46:36;4.47;;;1.40;;
72404;SDS011;60395;52.020;113.548;2024-01-11T05:49:40;3.95;;;2.13;;
72404;SDS011;60395;52.020;113.548;2024-01-11T05:52:43;5.15;;;2.03;;
72404;SDS011;60395;52.020;113.548;2024-01-11T05:55:47;5.43;;;2.57;;
72404;SDS011;60395;52.020;113.548;2024-01-11T05:58:53;8.18;;;2.88;;
72404;SDS011;60395;52.020;113.548;2024-01-11T06:01:57;4.63;;;1.57;;
72404;SDS011;60395;52.020;113.548;2024-01-11T06:05:03;7.20;;;2.95;;
72404;SDS011;60395;52.020;113.548;2024-01-11T06:08:07;9.30;;;3.28;;
72404;SDS011;60395;52.020;113.548;2024-01-11T06:11:10;7.40;;;3.33;;
72404;SDS011;60395;52.020;113.548;2024-01-11T06:14:14;12.57;;;3.43;;
72404;SDS011;60395;52.020;113.548;2024-01-11T06:17:18;9.48;;;3.95;;
72404;SDS011;60395;52.020;113.548;2024-01-11T06:20:21;5.53;;;2.43;;
72404;SDS011;60395;52.020;113.548;2024-01-11T06:23:25;3.28;;;1.75;;
72404;SDS011;60395;52.020;113.548;2024-01-11T06:26:28;6.28;;;1.95;;
72404;SDS011;60395;52.020;113.548;2024-01-11T06:29:32;3.30;;;1.70;;
72404;SDS011;60395;52.020;113.548;2024-01-11T06:32:36;7.80;;;2.65;;
72404;SDS011;60395;52.020;113.548;2024-01-11T06:35:40;8.13;;;2.42;;
72404;SDS011;60395;52.020;113.548;2024-01-11T06:38:43;6.50;;;2.30;;
72404;SDS011;60395;52.020;113.548;2024-01-11T06:41:47;3.40;;;1.93;;
72404;SDS011;60395;52.020;113.548;2024-01-11T06:44:50;6.97;;;2.13;;
72404;SDS011;60395;52.020;113.548;2024-01-11T06:47:54;6.40;;;2.60;;
72404;SDS011;60395;52.020;113.548;2024-01-11T06:51:00;10.60;;;2.40;;
72404;SDS011;60395;52.020;113.548;2024-01-11T06:54:08;5.47;;;2.35;;
72404;SDS011;60395;52.020;113.548;2024-01-11T06:57:12;6.95;;;2.90;;
72404;SDS011;60395;52.020;113.548;2024-01-11T07:00:15;5.93;;;2.30;;
72404;SDS011;60395;52.020;113.548;2024-01-11T07:03:19;6.00;;;3.00;;
72404;SDS011;60395;52.020;113.548;2024-01-11T07:06:22;9.17;;;2.70;;
72404;SDS011;60395;52.020;113.548;2024-01-11T07:09:26;5.65;;;2.13;;
72404;SDS011;60395;52.020;113.548;2024-01-11T07:12:29;5.50;;;2.23;;
72404;SDS011;60395;52.020;113.548;2024-01-11T07:15:33;5.07;;;2.17;;
72404;SDS011;60395;52.020;113.548;2024-01-11T07:18:36;9.45;;;3.08;;
72404;SDS011;60395;52.020;113.548;2024-01-11T07:21:40;13.30;;;3.73;;
72404;SDS011;60395;52.020;113.548;2024-01-11T07:24:43;13.27;;;3.60;;
72404;SDS011;60395;52.020;113.548;2024-01-11T07:27:47;15.53;;;4.57;;
72404;SDS011;60395;52.020;113.548;2024-01-11T07:30:51;14.23;;;4.43;;
72404;SDS011;60395;52.020;113.548;2024-01-11T07:33:55;28.13;;;9.25;;
72404;SDS011;60395;52.020;113.548;2024-01-11T07:36:59;8.43;;;2.97;;
72404;SDS011;60395;52.020;113.548;2024-01-11T07:40:02;9.30;;;2.33;;
72404;SDS011;60395;52.020;113.548;2024-01-11T07:43:06;4.93;;;2.45;;
72404;SDS011;60395;52.020;113.548;2024-01-11T07:49:14;8.65;;;4.25;;
72404;SDS011;60395;52.020;113.548;2024-01-11T07:52:18;6.57;;;4.13;;
72404;SDS011;60395;52.020;113.548;2024-01-11T07:58:26;4.97;;;2.93;;
72404;SDS011;60395;52.020;113.548;2024-01-11T08:01:30;10.10;;;4.43;;
72404;SDS011;60395;52.020;113.548;2024-01-11T08:04:33;8.52;;;3.97;;
72404;SDS011;60395;52.020;113.548;2024-01-11T08:07:37;12.77;;;4.67;;
72404;SDS011;60395;52.020;113.548;2024-01-11T08:10:40;17.90;;;6.77;;
72404;SDS011;60395;52.020;113.548;2024-01-11T08:13:44;15.60;;;6.77;;
72404;SDS011;60395;52.020;113.548;2024-01-11T08:16:47;6.60;;;2.85;;
72404;SDS011;60395;52.020;113.548;2024-01-11T08:19:50;12.47;;;4.10;;
72404;SDS011;60395;52.020;113.548;2024-01-11T08:22:54;10.40;;;4.33;;
72404;SDS011;60395;52.020;113.548;2024-01-11T08:25:59;13.13;;;4.88;;
72404;SDS011;60395;52.020;113.548;2024-01-11T08:29:02;8.27;;;3.20;;
72404;SDS011;60395;52.020;113.548;2024-01-11T08:32:07;4.95;;;2.28;;
72404;SDS011;60395;52.020;113.548;2024-01-11T08:35:29;5.13;;;2.28;;
72404;SDS011;60395;52.020;113.548;2024-01-11T08:38:34;2.38;;;1.40;;
72404;SDS011;60395;52.020;113.548;2024-01-11T08:41:38;6.18;;;1.90;;
72404;SDS011;60395;52.020;113.548;2024-01-11T08:44:42;36.38;;;12.23;;
72404;SDS011;60395;52.020;113.548;2024-01-11T08:47:46;4.05;;;2.10;;
72404;SDS011;60395;52.020;113.548;2024-01-11T08:50:50;3.55;;;1.70;;
72404;SDS011;60395;52.020;113.548;2024-01-11T08:53:53;4.85;;;2.20;;
72404;SDS011;60395;52.020;113.548;2024-01-11T09:00:01;2.90;;;1.10;;
72404;SDS011;60395;52.020;113.548;2024-01-11T09:03:06;6.93;;;2.83;;
72404;SDS011;60395;52.020;113.548;2024-01-11T09:06:10;3.80;;;1.30;;
72404;SDS011;60395;52.020;113.548;2024-01-11T09:09:14;1.40;;;1.13;;
72404;SDS011;60395;52.020;113.548;2024-01-11T09:12:18;3.10;;;1.50;;
72404;SDS011;60395;52.020;113.548;2024-01-11T09:15:21;1.80;;;1.38;;
72404;SDS011;60395;52.020;113.548;2024-01-11T09:18:25;15.70;;;4.07;;
72404;SDS011;60395;52.020;113.548;2024-01-11T09:21:28;2.83;;;0.80;;
72404;SDS011;60395;52.020;113.548;2024-01-11T09:24:32;3.88;;;1.77;;
72404;SDS011;60395;52.020;113.548;2024-01-11T09:27:40;1.00;;;0.70;;
72404;SDS011;60395;52.020;113.548;2024-01-11T09:30:43;1.80;;;0.82;;
72404;SDS011;60395;52.020;113.548;2024-01-11T09:33:46;5.85;;;3.38;;
72404;SDS011;60395;52.020;113.548;2024-01-11T09:36:52;4.40;;;2.10;;
72404;SDS011;60395;52.020;113.548;2024-01-11T09:39:56;7.65;;;1.63;;
72404;SDS011;60395;52.020;113.548;2024-01-11T09:43:00;5.38;;;2.28;;
72404;SDS011;60395;52.020;113.548;2024-01-11T09:46:06;6.70;;;3.67;;
72404;SDS011;60395;52.020;113.548;2024-01-11T09:49:11;25.23;;;12.38;;
72404;SDS011;60395;52.020;113.548;2024-01-11T09:52:15;3.75;;;1.77;;
72404;SDS011;60395;52.020;113.548;2024-01-11T09:55:19;2.45;;;1.50;;
72404;SDS011;60395;52.020;113.548;2024-01-11T10:01:26;1.05;;;0.90;;
72404;SDS011;60395;52.020;113.548;2024-01-11T10:04:30;1.98;;;1.05;;
72404;SDS011;60395;52.020;113.548;2024-01-11T10:07:33;1.75;;;0.65;;
72404;SDS011;60395;52.020;113.548;2024-01-11T10:10:42;1.60;;;0.55;;
72404;SDS011;60395;52.020;113.548;2024-01-11T10:13:46;4.32;;;1.38;;
72404;SDS011;60395;52.020;113.548;2024-01-11T10:16:50;5.60;;;3.25;;
72404;SDS011;60395;52.020;113.548;2024-01-11T10:19:53;22.63;;;11.05;;
72404;SDS011;60395;52.020;113.548;2024-01-11T10:22:58;11.38;;;4.78;;
72404;SDS011;60395;52.020;113.548;2024-01-11T10:26:02;9.15;;;4.72;;
72404;SDS011;60395;52.020;113.548;2024-01-11T10:29:06;18.38;;;5.07;;
72404;SDS011;60395;52.020;113.548;2024-01-11T10:32:14;13.50;;;5.70;;
72404;SDS011;60395;52.020;113.548;2024-01-11T10:35:18;13.88;;;6.35;;
72404;SDS011;60395;52.020;113.548;2024-01-11T10:38:22;27.38;;;12.63;;
72404;SDS011;60395;52.020;113.548;2024-01-11T10:41:28;11.63;;;6.05;;
72404;SDS011;60395;52.020;113.548;2024-01-11T10:44:36;8.32;;;3.58;;
72404;SDS011;60395;52.020;113.548;2024-01-11T10:47:51;9.27;;;5.25;;
72404;SDS011;60395;52.020;113.548;2024-01-11T10:51:01;19.50;;;6.85;;
72404;SDS011;60395;52.020;113.548;2024-01-11T10:54:09;12.20;;;5.93;;
72404;SDS011;60395;52.020;113.548;2024-01-11T10:57:13;36.33;;;7.53;;
72404;SDS011;60395;52.020;113.548;2024-01-11T11:00:19;12.50;;;5.88;;
72404;SDS011;60395;52.020;113.548;2024-01-11T11:03:23;20.95;;;7.25;;
72404;SDS011;60395;52.020;113.548;2024-01-11T11:06:27;15.05;;;7.28;;
72404;SDS011;60395;52.020;113.548;2024-01-11T11:09:32;8.45;;;4.10;;
72404;SDS011;60395;52.020;113.548;2024-01-11T11:12:38;14.23;;;5.30;;
72404;SDS011;60395;52.020;113.548;2024-01-11T11:15:45;7.65;;;3.25;;
72404;SDS011;60395;52.020;113.548;2024-01-11T11:18:53;19.27;;;2.53;;
72404;SDS011;60395;52.020;113.548;2024-01-11T11:21:58;3.08;;;1.60;;
72404;SDS011;60395;52.020;113.548;2024-01-11T11:25:44;2.03;;;1.15;;
72404;SDS011;60395;52.020;113.548;2024-01-11T11:28:28;1.17;;;0.75;;
72404;SDS011;60395;52.020;113.548;2024-01-11T11:31:42;5.15;;;1.83;;
72404;SDS011;60395;52.020;113.548;2024-01-11T11:34:50;1.20;;;0.90;;
72404;SDS011;60395;52.020;113.548;2024-01-11T11:37:55;2.20;;;1.05;;
72404;SDS011;60395;52.020;113.548;2024-01-11T11:41:02;4.43;;;1.98;;
72404;SDS011;60395;52.020;113.548;2024-01-11T11:44:05;2.40;;;2.00;;
72404;SDS011;60395;52.020;113.548;2024-01-11T11:47:22;7.03;;;2.75;;
72404;SDS011;60395;52.020;113.548;2024-01-11T11:50:26;8.98;;;4.82;;
72404;SDS011;60395;52.020;113.548;2024-01-11T11:53:32;11.10;;;5.28;;
72404;SDS011;60395;52.020;113.548;2024-01-11T11:56:36;5.53;;;3.17;;
72404;SDS011;60395;52.020;113.548;2024-01-11T11:59:40;16.90;;;8.85;;
72404;SDS011;60395;52.020;113.548;2024-01-11T12:02:46;11.40;;;5.38;;
72404;SDS011;60395;52.020;113.548;2024-01-11T12:05:52;8.83;;;3.67;;
72404;SDS011;60395;52.020;113.548;2024-01-11T12:08:57;10.57;;;5.23;;
72404;SDS011;60395;52.020;113.548;2024-01-11T12:12:00;17.27;;;5.95;;
72404;SDS011;60395;52.020;113.548;2024-01-11T12:15:16;10.00;;;3.78;;
72404;SDS011;60395;52.020;113.548;2024-01-11T12:18:21;5.57;;;3.47;;
72404;SDS011;60395;52.020;113.548;2024-01-11T12:21:24;18.05;;;4.22;;
72404;SDS011;60395;52.020;113.548;2024-01-11T12:24:29;7.23;;;2.10;;
72404;SDS011;60395;52.020;113.548;2024-01-11T12:27:33;6.22;;;3.30;;
72404;SDS011;60395;52.020;113.548;2024-01-11T12:30:36;10.52;;;4.85;;
72404;SDS011;60395;52.020;113.548;2024-01-11T12:33:41;12.18;;;5.60;;
72404;SDS011;60395;52.020;113.548;2024-01-11T12:36:46;3.90;;;2.35;;
72404;SDS011;60395;52.020;113.548;2024-01-11T12:42:59;4.03;;;2.23;;
72404;SDS011;60395;52.020;113.548;2024-01-11T12:46:03;2.78;;;2.08;;
72404;SDS011;60395;52.020;113.548;2024-01-11T12:52:18;2.57;;;1.87;;
72404;SDS011;60395;52.020;113.548;2024-01-11T12:55:27;6.10;;;3.73;;
72404;SDS011;60395;52.020;113.548;2024-01-11T12:58:31;6.43;;;2.75;;
72404;SDS011;60395;52.020;113.548;2024-01-11T13:01:38;4.20;;;2.80;;
72404;SDS011;60395;52.020;113.548;2024-01-11T13:04:43;5.73;;;3.73;;
72404;SDS011;60395;52.020;113.548;2024-01-11T13:07:49;4.07;;;1.57;;
72404;SDS011;60395;52.020;113.548;2024-01-11T13:10:52;2.72;;;1.85;;
72404;SDS011;60395;52.020;113.548;2024-01-11T13:13:56;3.90;;;1.90;;
72404;SDS011;60395;52.020;113.548;2024-01-11T13:17:01;3.80;;;1.53;;
72404;SDS011;60395;52.020;113.548;2024-01-11T13:20:05;3.78;;;1.50;;
72404;SDS011;60395;52.020;113.548;2024-01-11T13:23:17;3.83;;;1.73;;
72404;SDS011;60395;52.020;113.548;2024-01-11T13:29:27;8.80;;;0.90;;
72404;SDS011;60395;52.020;113.548;2024-01-11T13:35:35;1.45;;;1.35;;
72404;SDS011;60395;52.020;113.548;2024-01-11T13:38:39;2.10;;;1.37;;
72404;SDS011;60395;52.020;113.548;2024-01-11T13:41:43;1.83;;;1.30;;
72404;SDS011;60395;52.020;113.548;2024-01-11T13:44:47;2.20;;;1.52;;
72404;SDS011;60395;52.020;113.548;2024-01-11T13:47:53;7.07;;;5.10;;
72404;SDS011;60395;52.020;113.548;2024-01-11T13:51:01;3.27;;;1.23;;
72404;SDS011;60395;52.020;113.548;2024-01-11T13:54:07;3.87;;;2.57;;
72404;SDS011;60395;52.020;113.548;2024-01-11T13:57:11;0.70;;;0.60;;
72404;SDS011;60395;52.020;113.548;2024-01-11T14:00:14;1.80;;;1.15;;
72404;SDS011;60395;52.020;113.548;2024-01-11T14:03:21;1.67;;;1.17;;
72404;SDS011;60395;52.020;113.548;2024-01-11T14:06:24;0.80;;;0.70;;
72404;SDS011;60395;52.020;113.548;2024-01-11T14:09:29;1.00;;;0.53;;
72404;SDS011;60395;52.020;113.548;2024-01-11T14:15:35;1.40;;;0.90;;
72404;SDS011;60395;52.020;113.548;2024-01-11T14:18:39;1.83;;;0.80;;
72404;SDS011;60395;52.020;113.548;2024-01-11T14:21:43;1.30;;;1.05;;
72404;SDS011;60395;52.020;113.548;2024-01-11T14:24:46;2.80;;;1.55;;
72404;SDS011;60395;52.020;113.548;2024-01-11T14:27:50;7.78;;;3.55;;
72404;SDS011;60395;52.020;113.548;2024-01-11T14:30:56;9.80;;;2.70;;
72404;SDS011;60395;52.020;113.548;2024-01-11T14:33:59;13.23;;;5.10;;
72404;SDS011;60395;52.020;113.548;2024-01-11T14:37:07;17.53;;;7.73;;
72404;SDS011;60395;52.020;113.548;2024-01-11T14:40:11;5.75;;;4.28;;
72404;SDS011;60395;52.020;113.548;2024-01-11T14:46:19;6.55;;;3.97;;
72404;SDS011;60395;52.020;113.548;2024-01-11T14:49:23;10.77;;;3.73;;
72404;SDS011;60395;52.020;113.548;2024-01-11T14:52:28;9.37;;;6.37;;
72404;SDS011;60395;52.020;113.548;2024-01-11T14:55:32;37.17;;;14.95;;
72404;SDS011;60395;52.020;113.548;2024-01-11T14:58:38;43.67;;;17.70;;
72404;SDS011;60395;52.020;113.548;2024-01-11T15:01:43;73.90;;;26.17;;
72404;SDS011;60395;52.020;113.548;2024-01-11T15:04:48;56.47;;;21.37;;
72404;SDS011;60395;52.020;113.548;2024-01-11T15:07:53;43.73;;;13.73;;
72404;SDS011;60395;52.020;113.548;2024-01-11T15:10:59;39.27;;;12.77;;
72404;SDS011;60395;52.020;113.548;2024-01-11T15:14:02;33.03;;;12.13;;
72404;SDS011;60395;52.020;113.548;2024-01-11T15:17:08;10.53;;;4.67;;
72404;SDS011;60395;52.020;113.548;2024-01-11T15:20:12;8.63;;;5.03;;
72404;SDS011;60395;52.020;113.548;2024-01-11T15:23:16;8.93;;;4.87;;
72404;SDS011;60395;52.020;113.548;2024-01-11T15:26:21;3.87;;;2.40;;
72404;SDS011;60395;52.020;113.548;2024-01-11T15:29:26;11.43;;;3.90;;
72404;SDS011;60395;52.020;113.548;2024-01-11T15:35:32;14.00;;;4.53;;
72404;SDS011;60395;52.020;113.548;2024-01-11T15:38:36;2.13;;;1.70;;
72404;SDS011;60395;52.020;113.548;2024-01-11T15:41:45;6.03;;;2.63;;
72404;SDS011;60395;52.020;113.548;2024-01-11T15:44:50;2.07;;;1.67;;
72404;SDS011;60395;52.020;113.548;2024-01-11T15:47:53;17.67;;;3.40;;
72404;SDS011;60395;52.020;113.548;2024-01-11T15:54:02;3.37;;;2.47;;
72404;SDS011;60395;52.020;113.548;2024-01-11T15:57:06;5.70;;;2.28;;
72404;SDS011;60395;52.020;113.548;2024-01-11T16:00:10;3.93;;;3.43;;
72404;SDS011;60395;52.020;113.548;2024-01-11T16:03:15;1.40;;;1.07;;
72404;SDS011;60395;52.020;113.548;2024-01-11T16:06:19;1.77;;;1.33;;
72404;SDS011;60395;52.020;113.548;2024-01-11T16:09:22;16.83;;;5.50;;
72404;SDS011;60395;52.020;113.548;2024-01-11T16:12:26;4.10;;;3.03;;
72404;SDS011;60395;52.020;113.548;2024-01-11T16:15:29;6.13;;;3.70;;
72404;SDS011;60395;52.020;113.548;2024-01-11T16:18:34;11.07;;;6.60;;
72404;SDS011;60395;52.020;113.548;2024-01-11T16:21:39;21.93;;;8.67;;
72404;SDS011;60395;52.020;113.548;2024-01-11T16:24:43;22.80;;;10.33;;
72404;SDS011;60395;52.020;113.548;2024-01-11T16:27:47;24.23;;;9.38;;
72404;SDS011;60395;52.020;113.548;2024-01-11T16:33:54;44.33;;;15.27;;
72404;SDS011;60395;52.020;113.548;2024-01-11T16:36:59;22.43;;;10.60;;
72404;SDS011;60395;52.020;113.548;2024-01-11T16:40:03;67.30;;;25.30;;
72404;SDS011;60395;52.020;113.548;2024-01-11T16:46:19;11.87;;;6.80;;
72404;SDS011;60395;52.020;113.548;2024-01-11T16:49:24;9.77;;;5.77;;
72404;SDS011;60395;52.020;113.548;2024-01-11T16:52:29;5.07;;;3.17;;
72404;SDS011;60395;52.020;113.548;2024-01-11T16:55:33;6.00;;;3.00;;
72404;SDS011;60395;52.020;113.548;2024-01-11T16:58:38;17.00;;;5.83;;
72404;SDS011;60395;52.020;113.548;2024-01-11T17:04:45;2.42;;;2.22;;
72404;SDS011;60395;52.020;113.548;2024-01-11T17:07:48;6.22;;;2.80;;
72404;SDS011;60395;52.020;113.548;2024-01-11T17:10:52;2.58;;;2.38;;
72404;SDS011;60395;52.020;113.548;2024-01-11T17:13:55;2.40;;;1.63;;
72404;SDS011;60395;52.020;113.548;2024-01-11T17:16:59;10.32;;;3.20;;
72404;SDS011;60395;52.020;113.548;2024-01-11T17:20:07;2.53;;;2.03;;
72404;SDS011;60395;52.020;113.548;2024-01-11T17:23:12;9.10;;;4.07;;
72404;SDS011;60395;52.020;113.548;2024-01-11T17:26:17;4.43;;;2.93;;
72404;SDS011;60395;52.020;113.548;2024-01-11T17:29:21;3.25;;;1.92;;
72404;SDS011;60395;52.020;113.548;2024-01-11T17:32:26;3.07;;;2.33;;
72404;SDS011;60395;52.020;113.548;2024-01-11T17:35:30;21.87;;;6.37;;
72404;SDS011;60395;52.020;113.548;2024-01-11T17:41:40;46.30;;;20.53;;
72404;SDS011;60395;52.020;113.548;2024-01-11T17:44:44;77.10;;;28.97;;
72404;SDS011;60395;52.020;113.548;2024-01-11T17:47:54;52.90;;;20.03;;
72404;SDS011;60395;52.020;113.548;2024-01-11T17:50:57;29.80;;;10.50;;
72404;SDS011;60395;52.020;113.548;2024-01-11T17:54:01;52.75;;;23.80;;
72404;SDS011;60395;52.020;113.548;2024-01-11T17:57:04;28.77;;;11.73;;
72404;SDS011;60395;52.020;113.548;2024-01-11T18:00:09;35.87;;;15.00;;
72404;SDS011;60395;52.020;113.548;2024-01-11T18:03:15;26.27;;;10.97;;
72404;SDS011;60395;52.020;113.548;2024-01-11T18:06:18;16.20;;;7.43;;
72404;SDS011;60395;52.020;113.548;2024-01-11T18:09:23;16.53;;;9.67;;
72404;SDS011;60395;52.020;113.548;2024-01-11T18:12:32;9.63;;;3.33;;
72404;SDS011;60395;52.020;113.548;2024-01-11T18:15:45;4.37;;;3.03;;
72404;SDS011;60395;52.020;113.548;2024-01-11T18:18:55;14.43;;;7.95;;
72404;SDS011;60395;52.020;113.548;2024-01-11T18:22:03;6.37;;;3.83;;
72404;SDS011;60395;52.020;113.548;2024-01-11T18:25:08;2.80;;;2.13;;
72404;SDS011;60395;52.020;113.548;2024-01-11T18:28:13;5.07;;;1.93;;
72404;SDS011;60395;52.020;113.548;2024-01-11T18:31:16;12.35;;;4.68;;
72404;SDS011;60395;52.020;113.548;2024-01-11T18:34:20;6.33;;;4.10;;
72404;SDS011;60395;52.020;113.548;2024-01-11T18:37:38;14.73;;;0.67;;
72404;SDS011;60395;52.020;113.548;2024-01-11T18:40:45;10.73;;;5.20;;
72404;SDS011;60395;52.020;113.548;2024-01-11T18:43:52;9.30;;;5.40;;
72404;SDS011;60395;52.020;113.548;2024-01-11T18:46:55;7.75;;;3.45;;